createdAt,value
2023-02-07T00:01:37.692Z,11.85
2023-02-07T00:04:08.712Z,11.40
2023-02-07T00:06:38.020Z,12.20
2023-02-07T00:09:08.714Z,13.65
2023-02-07T00:11:40.579Z,13.27
2023-02-07T00:14:12.388Z,12.45
2023-02-07T00:16:41.683Z,11.25
2023-02-07T00:19:10.360Z,11.60
2023-02-07T00:21:39.168Z,8.75
2023-02-07T00:24:07.860Z,11.35
2023-02-07T00:26:36.321Z,11.18
2023-02-07T00:29:05.114Z,10.10
2023-02-07T00:31:36.366Z,12.38
2023-02-07T00:34:07.059Z,10.07
2023-02-07T00:36:37.054Z,9.13
2023-02-07T00:39:07.507Z,11.23
2023-02-07T00:41:36.006Z,10.93
2023-02-07T00:44:05.081Z,11.50
2023-02-07T00:46:35.379Z,9.27
2023-02-07T00:49:04.870Z,8.75
2023-02-07T00:51:34.142Z,9.05
2023-02-07T00:54:02.756Z,11.02
2023-02-07T00:56:31.783Z,9.55
2023-02-07T00:59:00.471Z,11.95
2023-02-07T01:01:29.011Z,12.73
2023-02-07T01:03:59.753Z,9.35
2023-02-07T01:06:29.540Z,11.32
2023-02-07T01:08:59.118Z,11.52
2023-02-07T01:11:29.882Z,11.52
2023-02-07T01:14:00.456Z,12.27
2023-02-07T01:16:31.797Z,10.63
2023-02-07T01:19:02.654Z,9.48
2023-02-07T01:21:31.416Z,13.27
2023-02-07T01:23:59.875Z,14.30
2023-02-07T01:26:29.016Z,10.80
2023-02-07T01:28:57.804Z,9.73
2023-02-07T01:31:26.806Z,10.27
2023-02-07T01:33:56.083Z,9.93
2023-02-07T01:36:26.820Z,9.88
2023-02-07T01:38:56.310Z,11.32
2023-02-07T01:41:26.169Z,10.75
2023-02-07T01:43:56.527Z,12.13
2023-02-07T01:46:25.403Z,10.25
2023-02-07T01:48:56.006Z,8.98
2023-02-07T01:51:27.741Z,10.43
2023-02-07T01:54:00.964Z,11.07
2023-02-07T01:56:32.232Z,13.73
2023-02-07T01:59:02.545Z,9.40
2023-02-07T02:01:31.233Z,11.15
2023-02-07T02:03:59.679Z,12.90
2023-02-07T02:06:32.927Z,12.80
2023-02-07T02:09:03.365Z,9.18
2023-02-07T02:12:08.480Z,11.10
2023-02-07T02:14:57.083Z,12.65
2023-02-07T02:17:31.909Z,11.27
2023-02-07T02:20:38.514Z,11.57
2023-02-07T02:23:26.024Z,12.75
2023-02-07T02:26:31.725Z,9.13
2023-02-07T02:29:42.418Z,9.63
2023-02-07T02:32:52.410Z,9.82
2023-02-07T02:35:33.514Z,8.93
2023-02-07T02:38:17.810Z,9.77
2023-02-07T02:40:53.940Z,8.45
2023-02-07T02:43:32.869Z,8.38
2023-02-07T02:46:07.831Z,8.88
2023-02-07T02:48:38.032Z,9.60
2023-02-07T02:51:08.798Z,8.68
2023-02-07T02:53:38.633Z,7.10
2023-02-07T02:56:43.999Z,7.25
2023-02-07T02:59:38.032Z,8.65
2023-02-07T03:02:18.537Z,10.30
2023-02-07T03:05:07.007Z,8.00
2023-02-07T03:07:48.876Z,7.13
2023-02-07T03:10:26.578Z,7.35
2023-02-07T03:12:59.989Z,7.60
2023-02-07T03:15:37.695Z,7.47
2023-02-07T03:18:11.590Z,8.55
2023-02-07T03:20:44.554Z,7.23
2023-02-07T03:23:17.628Z,6.68
2023-02-07T03:25:48.334Z,6.72
2023-02-07T03:28:19.602Z,6.47
2023-02-07T03:30:50.402Z,5.63
2023-02-07T03:33:20.617Z,7.85
2023-02-07T03:35:58.575Z,7.85
2023-02-07T03:38:28.392Z,7.47
2023-02-07T03:41:01.722Z,8.05
2023-02-07T03:43:33.520Z,7.82
2023-02-07T03:46:02.135Z,9.43
2023-02-07T03:48:30.572Z,9.73
2023-02-07T03:50:59.003Z,9.35
2023-02-07T03:53:34.190Z,6.20
2023-02-07T03:56:02.586Z,8.65
2023-02-07T03:58:31.019Z,9.90
2023-02-07T04:00:59.417Z,8.82
2023-02-07T04:03:28.078Z,8.50
2023-02-07T04:05:56.686Z,8.48
2023-02-07T04:08:25.034Z,7.18
2023-02-07T04:11:02.943Z,7.78
2023-02-07T04:13:31.926Z,6.95
2023-02-07T04:16:00.663Z,5.82
2023-02-07T04:18:29.136Z,7.35
2023-02-07T04:21:03.159Z,7.95
2023-02-07T04:23:31.547Z,7.40
2023-02-07T04:26:01.771Z,5.82
2023-02-07T04:28:30.586Z,7.40
2023-02-07T04:30:58.965Z,7.13
2023-02-07T04:33:27.413Z,6.05
2023-02-07T04:35:56.831Z,6.28
2023-02-07T04:38:25.501Z,6.35
2023-02-07T04:40:54.807Z,6.10
2023-02-07T04:43:24.562Z,6.35
2023-02-07T04:45:52.971Z,8.52
2023-02-07T04:48:21.628Z,6.60
2023-02-07T04:50:50.195Z,7.93
2023-02-07T04:53:18.624Z,5.05
2023-02-07T04:55:49.345Z,5.18
2023-02-07T04:58:17.775Z,5.40
2023-02-07T05:00:47.700Z,5.22
2023-02-07T05:03:16.907Z,4.82
2023-02-07T05:05:46.235Z,6.65
2023-02-07T05:08:15.043Z,5.20
2023-02-07T05:10:43.428Z,5.88
2023-02-07T05:13:11.771Z,5.65
2023-02-07T05:15:40.483Z,5.47
2023-02-07T05:18:10.361Z,6.20
2023-02-07T05:20:38.715Z,6.15
2023-02-07T05:23:07.053Z,5.03
2023-02-07T05:25:35.575Z,5.10
2023-02-07T05:28:04.261Z,6.28
2023-02-07T05:30:32.849Z,5.00
2023-02-07T05:33:06.266Z,6.65
2023-02-07T05:35:38.328Z,5.10
2023-02-07T05:38:08.728Z,4.63
2023-02-07T05:40:38.273Z,5.40
2023-02-07T05:43:07.220Z,4.30
2023-02-07T05:45:36.437Z,5.68
2023-02-07T05:48:05.485Z,4.97
2023-02-07T05:50:34.075Z,5.60
2023-02-07T05:53:12.912Z,6.75
2023-02-07T05:55:42.362Z,7.35
2023-02-07T05:58:10.652Z,7.88
2023-02-07T06:00:39.032Z,7.22
2023-02-07T06:03:07.391Z,6.88
2023-02-07T06:05:36.080Z,7.35
2023-02-07T06:08:04.933Z,7.10
2023-02-07T06:10:35.788Z,6.93
2023-02-07T06:13:04.115Z,7.03
2023-02-07T06:15:32.580Z,6.10
2023-02-07T06:18:00.974Z,5.57
2023-02-07T06:20:29.419Z,6.65
2023-02-07T06:22:57.809Z,5.82
2023-02-07T06:25:26.226Z,5.55
2023-02-07T06:27:55.995Z,7.20
2023-02-07T06:30:24.477Z,6.20
2023-02-07T06:32:52.853Z,6.82
2023-02-07T06:35:21.250Z,5.90
2023-02-07T06:37:49.619Z,5.53
2023-02-07T06:40:18.395Z,7.60
2023-02-07T06:42:46.987Z,6.68
2023-02-07T06:45:16.825Z,6.95
2023-02-07T06:47:45.204Z,5.97
2023-02-07T06:50:13.709Z,5.85
2023-02-07T06:52:42.074Z,5.68
2023-02-07T06:55:10.533Z,6.32
2023-02-07T06:57:38.856Z,5.82
2023-02-07T07:00:08.124Z,6.47
2023-02-07T07:02:38.054Z,5.85
2023-02-07T07:05:06.681Z,5.45
2023-02-07T07:07:35.078Z,6.03
2023-02-07T07:10:03.544Z,5.43
2023-02-07T07:12:32.051Z,6.10
2023-02-07T07:15:00.397Z,7.13
2023-02-07T07:17:29.680Z,7.00
2023-02-07T07:19:59.814Z,5.18
2023-02-07T07:22:28.136Z,5.43
2023-02-07T07:24:56.485Z,4.97
2023-02-07T07:27:24.930Z,5.85
2023-02-07T07:29:53.404Z,7.03
2023-02-07T07:32:33.316Z,5.90
2023-02-07T07:35:03.866Z,5.97
2023-02-07T07:37:32.815Z,5.63
2023-02-07T07:40:01.311Z,5.85
2023-02-07T07:42:29.719Z,5.32
2023-02-07T07:45:21.589Z,7.25
2023-02-07T07:47:50.025Z,5.15
2023-02-07T07:50:19.954Z,5.95
2023-02-07T07:52:48.325Z,5.93
2023-02-07T07:55:16.868Z,4.43
2023-02-07T07:57:45.237Z,5.32
2023-02-07T08:00:15.136Z,5.63
2023-02-07T08:02:44.932Z,7.03
2023-02-07T08:05:13.885Z,5.95
2023-02-07T08:07:43.718Z,5.82
2023-02-07T08:10:12.170Z,5.53
2023-02-07T08:12:42.646Z,4.40
2023-02-07T08:15:13.874Z,5.13
2023-02-07T08:17:42.320Z,4.65
2023-02-07T08:20:12.463Z,5.05
2023-02-07T08:22:41.225Z,5.97
2023-02-07T08:25:11.430Z,5.68
2023-02-07T08:27:39.895Z,5.63
2023-02-07T08:30:11.088Z,5.55
2023-02-07T08:32:40.322Z,4.55
2023-02-07T08:35:09.696Z,4.55
2023-02-07T08:37:39.491Z,4.93
2023-02-07T08:40:09.087Z,5.22
2023-02-07T08:42:38.800Z,5.47
2023-02-07T08:45:07.884Z,5.25
2023-02-07T08:47:36.470Z,4.63
2023-02-07T08:50:05.833Z,4.13
2023-02-07T08:52:36.837Z,4.53
2023-02-07T08:55:05.878Z,4.43
2023-02-07T08:57:34.253Z,4.78
2023-02-07T09:00:07.095Z,4.90
2023-02-07T09:02:36.470Z,4.25
2023-02-07T09:05:05.022Z,4.85
2023-02-07T09:07:33.630Z,4.43
2023-02-07T09:10:02.793Z,4.53
2023-02-07T09:12:32.125Z,4.10
2023-02-07T09:15:00.598Z,5.03
2023-02-07T09:17:33.412Z,4.85
2023-02-07T09:20:01.790Z,4.78
2023-02-07T09:22:31.539Z,5.10
2023-02-07T09:25:00.311Z,5.70
2023-02-07T09:27:28.913Z,4.57
2023-02-07T09:29:57.275Z,5.15
2023-02-07T09:32:25.663Z,6.05
2023-02-07T09:34:55.342Z,6.40
2023-02-07T09:37:23.682Z,5.22
2023-02-07T09:39:52.161Z,6.40
2023-02-07T09:42:28.557Z,5.13
2023-02-07T09:45:02.248Z,6.30
2023-02-07T09:47:32.631Z,5.90
2023-02-07T09:50:07.081Z,5.78
2023-02-07T09:52:40.752Z,5.85
2023-02-07T09:55:19.085Z,4.50
2023-02-07T09:57:50.172Z,5.60
2023-02-07T10:00:24.168Z,7.03
2023-02-07T10:02:58.684Z,5.50
2023-02-07T10:05:34.769Z,5.85
2023-02-07T10:08:03.104Z,5.72
2023-02-07T10:10:37.315Z,6.30
2023-02-07T10:13:28.852Z,5.80
2023-02-07T10:16:11.363Z,4.85
2023-02-07T10:18:47.643Z,5.18
2023-02-07T10:21:28.234Z,5.07
2023-02-07T10:24:20.225Z,5.00
2023-02-07T10:26:54.132Z,5.82
2023-02-07T10:29:43.604Z,5.40
2023-02-07T10:32:15.884Z,4.85
2023-02-07T10:34:48.492Z,5.38
2023-02-07T10:37:22.959Z,5.07
2023-02-07T10:40:01.254Z,7.63
2023-02-07T10:42:32.612Z,6.47
2023-02-07T10:45:01.566Z,6.88
2023-02-07T10:47:33.996Z,5.68
2023-02-07T10:50:09.378Z,7.80
2023-02-07T10:52:45.127Z,6.38
2023-02-07T10:55:18.945Z,5.50
2023-02-07T10:58:02.822Z,5.63
2023-02-07T11:00:37.227Z,7.25
2023-02-07T11:03:07.331Z,6.50
2023-02-07T11:05:41.435Z,5.82
2023-02-07T11:08:23.887Z,5.45
2023-02-07T11:11:29.714Z,7.03
2023-02-07T11:17:01.049Z,5.40
2023-02-07T11:19:52.925Z,4.65
2023-02-07T11:22:29.723Z,4.90
2023-02-07T11:25:04.947Z,4.93
2023-02-07T11:27:38.803Z,4.63
2023-02-07T11:30:11.178Z,5.82
2023-02-07T11:32:40.163Z,5.07
2023-02-07T11:35:10.611Z,4.80
2023-02-07T11:37:42.041Z,4.63
2023-02-07T11:40:23.423Z,5.40
2023-02-07T11:42:59.436Z,3.97
2023-02-07T11:45:29.364Z,5.03
2023-02-07T11:47:59.969Z,5.45
2023-02-07T11:50:31.156Z,6.90
2023-02-07T11:53:01.322Z,5.05
2023-02-07T11:55:35.148Z,4.60
2023-02-07T11:58:10.237Z,5.45
2023-02-07T12:00:39.775Z,4.63
2023-02-07T12:03:18.221Z,5.43
2023-02-07T12:05:51.844Z,5.28
2023-02-07T12:08:24.233Z,5.05
2023-02-07T12:10:57.049Z,4.75
2023-02-07T12:13:30.533Z,5.18
2023-02-07T12:16:03.454Z,5.97
2023-02-07T12:18:35.541Z,6.22
2023-02-07T12:21:13.447Z,4.75
2023-02-07T12:23:47.997Z,5.47
2023-02-07T12:26:24.052Z,5.05
2023-02-07T12:29:13.132Z,4.75
2023-02-07T12:31:52.226Z,4.85
2023-02-07T12:34:28.849Z,4.80
2023-02-07T12:37:04.438Z,4.80
2023-02-07T12:39:37.857Z,4.78
2023-02-07T12:42:26.198Z,4.55
2023-02-07T12:44:58.614Z,5.57
2023-02-07T12:47:41.844Z,4.25
2023-02-07T12:50:22.295Z,6.10
2023-02-07T12:53:05.577Z,4.88
2023-02-07T12:55:44.800Z,5.00
2023-02-07T12:58:28.851Z,5.57
2023-02-07T13:01:02.919Z,4.10
2023-02-07T13:03:48.771Z,5.65
2023-02-07T13:06:30.954Z,5.53
2023-02-07T13:09:07.560Z,4.53
2023-02-07T13:11:41.212Z,4.22
2023-02-07T13:14:23.593Z,6.20
2023-02-07T13:17:02.937Z,5.13
2023-02-07T13:19:41.152Z,5.15
2023-02-07T13:22:15.533Z,5.20
2023-02-07T13:24:45.654Z,4.93
2023-02-07T13:27:20.595Z,5.00
2023-02-07T13:29:52.218Z,5.93
2023-02-07T13:32:24.693Z,4.95
2023-02-07T13:34:59.789Z,5.13
2023-02-07T13:37:35.953Z,5.10
2023-02-07T13:40:20.908Z,5.72
2023-02-07T13:45:31.103Z,4.53
2023-02-07T13:48:05.867Z,4.65
2023-02-07T13:50:44.057Z,4.72
2023-02-07T13:53:28.894Z,5.20
2023-02-07T13:56:03.501Z,5.63
2023-02-07T13:59:11.055Z,5.75
2023-02-07T14:01:50.254Z,4.30
2023-02-07T14:04:19.430Z,4.97
2023-02-07T14:07:01.502Z,4.45
2023-02-07T14:09:35.730Z,4.93
2023-02-07T14:12:06.496Z,4.53
2023-02-07T14:14:36.793Z,5.45
2023-02-07T14:17:08.335Z,4.57
2023-02-07T14:19:54.776Z,4.40
2023-02-07T14:22:26.784Z,5.00
2023-02-07T14:25:20.579Z,4.57
2023-02-07T14:28:30.185Z,4.43
2023-02-07T14:31:02.646Z,4.35
2023-02-07T14:33:35.852Z,3.83
2023-02-07T14:36:21.492Z,4.00
2023-02-07T14:39:23.575Z,3.55
2023-02-07T14:41:53.319Z,3.95
2023-02-07T14:44:25.749Z,3.50
2023-02-07T14:46:57.877Z,3.78
2023-02-07T14:49:33.553Z,3.40
2023-02-07T14:52:06.919Z,3.63
2023-02-07T14:54:44.503Z,3.10
2023-02-07T14:57:26.156Z,3.53
2023-02-07T15:00:01.335Z,3.92
2023-02-07T15:02:34.622Z,3.58
2023-02-07T15:05:23.489Z,3.42
2023-02-07T15:07:58.187Z,3.28
2023-02-07T15:10:28.837Z,3.03
2023-02-07T15:12:57.666Z,3.35
2023-02-07T15:15:28.478Z,3.30
2023-02-07T15:18:00.124Z,2.90
2023-02-07T15:20:32.537Z,3.30
2023-02-07T15:23:04.398Z,3.20
2023-02-07T15:25:33.075Z,3.30
2023-02-07T15:28:03.557Z,3.40
2023-02-07T15:30:32.965Z,2.90
2023-02-07T15:33:02.343Z,3.38
2023-02-07T15:35:39.664Z,3.00
2023-02-07T15:38:17.068Z,3.45
2023-02-07T15:40:45.612Z,2.88
2023-02-07T15:43:30.183Z,3.80
2023-02-07T15:46:08.730Z,3.25
2023-02-07T15:48:49.456Z,3.35
2023-02-07T15:51:22.213Z,3.38
2023-02-07T15:53:52.088Z,3.13
2023-02-07T15:56:22.911Z,3.80
2023-02-07T15:58:51.860Z,3.70
2023-02-07T16:01:25.154Z,3.03
2023-02-07T16:03:56.626Z,4.00
2023-02-07T16:06:28.288Z,3.88
2023-02-07T16:08:58.469Z,3.47
2023-02-07T16:11:38.397Z,3.10
2023-02-07T16:14:17.905Z,3.88
2023-02-07T16:16:55.038Z,3.22
2023-02-07T16:19:27.332Z,4.45
2023-02-07T16:22:06.578Z,4.28
2023-02-07T16:24:37.651Z,4.05
2023-02-07T16:27:06.622Z,3.90
2023-02-07T16:29:37.152Z,4.43
2023-02-07T16:32:05.909Z,3.78
2023-02-07T16:34:34.254Z,3.92
2023-02-07T16:37:04.191Z,3.83
2023-02-07T16:39:32.533Z,3.90
2023-02-07T16:42:05.987Z,4.43
2023-02-07T16:44:35.989Z,4.25
2023-02-07T16:47:04.545Z,4.55
2023-02-07T17:35:10.932Z,6.45
2023-02-07T17:37:40.642Z,6.88
2023-02-07T17:40:21.984Z,5.93
2023-02-07T17:42:51.789Z,6.55
2023-02-07T17:45:27.392Z,5.95
2023-02-07T17:47:57.518Z,5.82
2023-02-07T17:50:32.012Z,5.78
2023-02-07T17:55:35.656Z,4.88
2023-02-07T17:58:07.623Z,5.80
2023-02-07T18:00:39.121Z,5.53
2023-02-07T18:03:09.212Z,5.15
2023-02-07T18:05:42.000Z,5.43
2023-02-07T18:08:12.187Z,6.45
2023-02-07T18:10:41.407Z,5.10
2023-02-07T18:13:09.987Z,5.93
2023-02-07T18:15:40.890Z,5.18
2023-02-07T18:18:11.352Z,5.47
2023-02-07T18:20:41.726Z,5.03
2023-02-07T18:23:11.954Z,5.88
2023-02-07T18:25:40.730Z,5.43
2023-02-07T18:28:09.217Z,5.72
2023-02-07T18:30:40.144Z,6.00
2023-02-07T18:33:13.422Z,4.65
2023-02-07T18:35:43.553Z,5.95
2023-02-07T18:38:15.357Z,5.47
2023-02-07T18:40:43.775Z,5.35
2023-02-07T18:43:12.182Z,5.65
2023-02-07T18:45:42.006Z,7.03
2023-02-07T18:48:10.692Z,8.18
2023-02-07T18:50:44.665Z,7.47
2023-02-07T18:53:13.688Z,7.35
2023-02-07T18:55:42.363Z,7.28
2023-02-07T18:58:11.178Z,7.82
2023-02-07T19:00:43.281Z,8.07
2023-02-07T19:03:11.961Z,8.10
2023-02-07T19:05:41.253Z,8.93
2023-02-07T19:08:11.952Z,9.27
2023-02-07T19:10:40.577Z,12.00
2023-02-07T19:13:09.135Z,8.75
2023-02-07T19:15:37.978Z,8.25
2023-02-07T19:18:06.543Z,8.57
2023-02-07T19:20:35.123Z,12.25
2023-02-07T19:23:03.584Z,8.98
2023-02-07T19:25:36.897Z,7.90
2023-02-07T19:28:05.930Z,10.20
2023-02-07T19:30:34.335Z,9.63
2023-02-07T19:33:02.977Z,9.02
2023-02-07T19:35:32.853Z,9.88
2023-02-07T19:38:01.353Z,9.52
2023-02-07T19:40:29.762Z,8.25
2023-02-07T19:42:59.617Z,11.43
2023-02-07T19:45:28.485Z,9.57
2023-02-07T19:47:56.916Z,9.77
2023-02-07T19:50:28.130Z,9.45
2023-02-07T19:52:57.511Z,10.40
2023-02-07T19:55:27.116Z,9.43
2023-02-07T19:57:55.620Z,10.88
2023-02-07T20:00:25.451Z,9.57
2023-02-07T20:02:53.757Z,7.40
2023-02-07T20:05:22.395Z,7.45
2023-02-07T20:07:50.708Z,6.95
2023-02-07T20:10:19.292Z,7.65
2023-02-07T20:12:51.903Z,7.50
2023-02-07T20:15:20.465Z,7.65
2023-02-07T20:17:50.398Z,8.82
2023-02-07T20:20:18.844Z,10.25
2023-02-07T20:22:47.527Z,11.27
2023-02-07T20:25:16.304Z,10.68
2023-02-07T20:27:44.808Z,8.88
2023-02-07T20:30:16.411Z,9.05
2023-02-07T20:32:46.393Z,9.35
2023-02-07T20:35:19.082Z,7.80
2023-02-07T20:37:53.835Z,8.60
2023-02-07T20:40:22.393Z,8.10
2023-02-07T20:42:52.687Z,8.15
2023-02-07T20:45:23.851Z,10.30
2023-02-07T20:47:52.641Z,9.45
2023-02-07T20:50:25.165Z,10.00
2023-02-07T20:52:55.430Z,9.65
2023-02-07T20:55:30.296Z,8.85
2023-02-07T20:57:59.481Z,8.75
2023-02-07T21:00:30.746Z,8.45
2023-02-07T21:03:05.449Z,10.20
2023-02-07T21:05:43.726Z,7.47
2023-02-07T21:08:13.342Z,10.57
2023-02-07T21:10:42.428Z,8.27
2023-02-07T21:13:11.685Z,7.53
2023-02-07T21:15:40.255Z,9.38
2023-02-07T21:18:08.649Z,10.93
2023-02-07T21:20:40.300Z,8.43
2023-02-07T21:23:08.833Z,10.82
2023-02-07T21:25:39.725Z,7.90
2023-02-07T21:28:09.574Z,9.13
2023-02-07T21:30:38.623Z,8.70
2023-02-07T21:33:08.314Z,7.63
2023-02-07T21:35:41.442Z,6.70
2023-02-07T21:38:10.353Z,6.03
2023-02-07T21:40:39.211Z,7.03
2023-02-07T21:43:07.713Z,7.10
2023-02-07T21:45:38.379Z,9.60
2023-02-07T21:48:07.417Z,9.73
2023-02-07T21:50:36.041Z,8.95
2023-02-07T21:53:05.780Z,9.52
2023-02-07T21:55:35.001Z,8.25
2023-02-07T21:58:03.264Z,9.27
2023-02-07T22:00:31.714Z,8.27
2023-02-07T22:03:00.091Z,7.22
2023-02-07T22:05:28.524Z,7.80
2023-02-07T22:07:56.810Z,7.55
2023-02-07T22:10:26.432Z,8.82
2023-02-07T22:12:54.747Z,8.85
2023-02-07T22:15:23.093Z,8.13
2023-02-07T22:17:51.434Z,7.18
2023-02-07T22:20:19.993Z,9.95
2023-02-07T22:22:48.321Z,7.88
2023-02-07T22:25:16.861Z,8.00
2023-02-07T22:27:46.638Z,8.25
2023-02-07T22:30:15.122Z,8.38
2023-02-07T22:32:43.489Z,7.15
2023-02-07T22:35:11.866Z,6.90
2023-02-07T22:37:40.298Z,7.65
2023-02-07T22:40:09.177Z,8.13
2023-02-07T22:42:37.519Z,8.63
2023-02-07T22:45:08.053Z,6.90
2023-02-07T22:47:36.430Z,6.15
2023-02-07T22:50:04.892Z,6.18
2023-02-07T22:52:34.468Z,6.43
2023-02-07T22:55:02.860Z,8.38
2023-02-07T22:57:32.065Z,6.13
2023-02-07T23:00:01.011Z,6.97
2023-02-07T23:02:31.103Z,7.60
2023-02-07T23:04:59.494Z,10.20
2023-02-07T23:07:27.828Z,9.30
2023-02-07T23:09:56.227Z,7.28
2023-02-07T23:12:24.637Z,7.90
2023-02-07T23:14:53.298Z,7.53
2023-02-07T23:17:21.707Z,8.88
2023-02-07T23:19:51.443Z,10.18
2023-02-07T23:22:19.838Z,7.75
2023-02-07T23:24:48.599Z,8.45
2023-02-07T23:27:17.110Z,8.75
2023-02-07T23:29:45.514Z,8.60
2023-02-07T23:32:13.966Z,8.15
2023-02-07T23:34:42.246Z,7.10
2023-02-07T23:37:11.892Z,6.80
2023-02-07T23:39:40.201Z,6.65
2023-02-07T23:42:10.422Z,7.75
2023-02-07T23:44:38.988Z,6.18
2023-02-07T23:47:07.495Z,6.82
2023-02-07T23:49:35.919Z,6.78
2023-02-07T23:52:04.324Z,6.57
2023-02-07T23:54:34.220Z,8.07
2023-02-07T23:57:02.532Z,7.25
2023-02-07T23:59:34.044Z,6.88
